Pilot Rock, Oregon
Current Conditions -  °F | °C
As of 12:53 AM on Saturday 22 Nov 2014 (Local Time) from KPDT Reporting Station
Light Rain Light Rain  
Wind Chill: 40°   Ceiling: 5500
Heat Index: 48°   Visibility: 6mi
Dew Point: 43°   Wind: 26mph
Humidity: 83%   Direction: 250°WSW
Pressure: 29.56"   Gusts: 35mph
Location:  45.48°N, 118.83°W
Report Text: KPDT 220853Z AUTO 25023G30KT 6SM -RA OVC055 09/06 A2956 RMK AO2 PK WND 25031/0838 SLP010 P0007 60009 T00890061 51050
Loading
Personal Weather Stations






























Interactive Weather Map New forecast layout! Learn more

10-Day Weather Forecast

Advertisements
Track Severe Weather on mobile